Time;durP1;ratioP1;P1;durP2;ratioP2;P2;SDS_P1;SDS_P2;PMS_P1;PMS_P2;Temp;Humidity;BMP_temperature;BMP_pressure;BME280_temperature;BME280_humidity;BME280_pressure;Samples;Min_cycle;Max_cycle;Signal;HPM_P1;HPM_P2
2023/05/01 00:01:04;;;;;;;0.70;0.70;;;;;;;5.30;98.57;98321.66;6187163;23;20020;-78
2023/05/01 00:03:32;;;;;;;0.70;0.70;;;;;;;5.36;98.77;98321.53;6187476;23;20027;-79
2023/05/01 00:06:01;;;;;;;0.70;0.70;;;;;;;5.45;98.66;98330.09;6212922;23;20025;-79
2023/05/01 00:08:29;;;;;;;0.60;0.60;;;;;;;5.50;98.72;98311.47;6186816;23;20032;-80
2023/05/01 00:10:56;;;;;;;0.60;0.60;;;;;;;5.50;98.68;98314.16;6213842;23;20020;-79
2023/05/01 00:13:23;;;;;;;0.60;0.60;;;;;;;5.51;98.71;98326.50;6186814;23;20016;-80
2023/05/01 00:15:51;;;;;;;0.60;0.60;;;;;;;5.54;98.73;98326.03;6187162;23;20027;-80
2023/05/01 00:18:18;;;;;;;0.70;0.70;;;;;;;5.57;98.83;98322.06;6212701;23;20320;-79
2023/05/01 00:20:45;;;;;;;0.60;0.60;;;;;;;5.52;98.14;98324.63;6186315;23;20159;-80
2023/05/01 00:23:12;;;;;;;0.60;0.60;;;;;;;5.52;98.01;98330.81;6213007;23;20023;-80
2023/05/01 00:25:39;;;;;;;0.70;0.70;;;;;;;5.52;97.78;98328.13;6213159;23;20048;-79
2023/05/01 00:28:07;;;;;;;0.60;0.60;;;;;;;5.60;97.95;98335.03;6212389;23;20028;-78
2023/05/01 00:30:34;;;;;;;0.60;0.60;;;;;;;5.63;97.74;98331.88;6212745;23;20044;-80
2023/05/01 00:33:03;;;;;;;0.60;0.60;;;;;;;5.72;97.66;98329.69;6174213;23;20025;-79
2023/05/01 00:35:30;;;;;;;0.70;0.70;;;;;;;5.77;97.66;98316.41;6212994;23;20051;-79
2023/05/01 00:37:57;;;;;;;0.60;0.60;;;;;;;5.82;97.57;98316.53;6212440;23;20052;-80
2023/05/01 00:40:25;;;;;;;0.70;0.70;;;;;;;5.81;97.45;98313.06;6186177;23;20104;-80
2023/05/01 00:42:53;;;;;;;0.70;0.70;;;;;;;5.73;96.91;98291.16;6186673;23;20079;-80
2023/05/01 00:45:20;;;;;;;0.60;0.60;;;;;;;5.80;96.80;98291.88;6187061;23;20029;-80
2023/05/01 00:47:47;;;;;;;0.60;0.60;;;;;;;5.84;96.70;98288.50;6213446;23;20074;-80
2023/05/01 00:50:14;;;;;;;0.60;0.60;;;;;;;5.85;96.25;98295.50;6213186;23;20020;-80
2023/05/01 00:52:42;;;;;;;0.60;0.60;;;;;;;5.78;95.42;98316.19;6212983;23;20020;-79
2023/05/01 00:55:09;;;;;;;0.65;0.65;;;;;;;5.72;94.89;98325.16;6212956;23;20104;-79
2023/05/01 00:57:38;;;;;;;0.70;0.70;;;;;;;5.71;94.88;98336.09;6212372;23;20090;-79
2023/05/01 01:00:07;;;;;;;0.60;0.60;;;;;;;5.75;94.75;98335.41;6185915;23;20083;-80
2023/05/01 01:02:37;;;;;;;0.60;0.60;;;;;;;5.79;94.78;98333.06;6187227;23;20333;-80
2023/05/01 01:05:05;;;;;;;0.60;0.60;;;;;;;5.80;95.00;98332.06;6212895;23;20080;-79
2023/05/01 01:07:46;;;;;;;0.60;0.60;;;;;;;5.83;94.96;98328.91;6212493;23;20020;-80
2023/05/01 01:10:17;;;;;;;0.60;0.60;;;;;;;5.89;95.01;98313.78;6186388;23;20059;-79
2023/05/01 01:12:57;;;;;;;0.60;0.60;;;;;;;5.93;94.99;98293.53;6212768;23;20363;-79
2023/05/01 01:15:35;;;;;;;0.70;0.70;;;;;;;5.88;95.01;98274.66;6186916;23;20025;-79
2023/05/01 01:18:17;;;;;;;0.60;0.60;;;;;;;5.90;94.99;98272.53;6186482;23;20052;-79
2023/05/01 01:20:56;;;;;;;0.60;0.60;;;;;;;5.83;94.77;98257.41;6161115;23;20111;-78
2023/05/01 01:23:39;;;;;;;0.70;0.70;;;;;;;5.83;94.67;98252.06;6212971;23;20024;-80
2023/05/01 01:26:27;;;;;;;0.60;0.60;;;;;;;5.76;94.56;98251.34;6186573;23;20082;-79
2023/05/01 01:29:21;;;;;;;0.60;0.60;;;;;;;5.70;94.15;98254.13;6186168;23;20024;-79
2023/05/01 01:32:15;;;;;;;0.60;0.60;;;;;;;5.65;94.05;98266.38;6212678;23;20027;-79
2023/05/01 01:34:53;;;;;;;0.70;0.70;;;;;;;5.67;94.25;98279.50;6062673;23;20359;-79
2023/05/01 01:37:24;;;;;;;0.70;0.70;;;;;;;5.64;94.37;98269.25;6039037;23;20026;-77
2023/05/01 01:39:54;;;;;;;0.60;0.60;;;;;;;5.68;94.50;98266.94;5966728;23;20042;-79
2023/05/01 01:42:25;;;;;;;0.70;0.70;;;;;;;5.70;94.47;98251.44;5987114;23;20029;-79
2023/05/01 01:44:59;;;;;;;0.50;0.50;;;;;;;5.70;94.34;98246.09;6010352;23;20024;-80
2023/05/01 01:47:30;;;;;;;0.60;0.60;;;;;;;5.65;94.63;98260.19;6010109;23;20114;-79
2023/05/01 01:50:03;;;;;;;0.70;0.70;;;;;;;5.65;94.75;98265.56;6010206;23;20097;-80
2023/05/01 01:52:33;;;;;;;0.60;0.60;;;;;;;5.69;94.61;98265.91;6010880;23;20050;-78
2023/05/01 01:55:05;;;;;;;0.60;0.60;;;;;;;5.68;94.59;98269.63;5977790;24;20030;-80
2023/05/01 01:57:33;;;;;;;0.60;0.60;;;;;;;5.67;94.24;98274.16;5977777;24;20025;-80
2023/05/01 02:00:01;;;;;;;0.70;0.70;;;;;;;5.70;94.43;98276.38;5931002;24;20465;-79
2023/05/01 02:02:40;;;;;;;0.60;0.60;;;;;;;5.71;94.26;98266.47;5955171;24;20103;-80
2023/05/01 02:05:13;;;;;;;0.60;0.60;;;;;;;5.68;94.18;98253.56;5977439;24;20111;-79
2023/05/01 02:07:40;;;;;;;0.60;0.60;;;;;;;5.69;94.34;98247.97;5931136;24;20403;-80
2023/05/01 02:10:08;;;;;;;0.60;0.60;;;;;;;5.66;93.97;98253.78;5932281;24;20344;-79
2023/05/01 02:12:36;;;;;;;0.60;0.60;;;;;;;5.58;93.62;98265.66;6052209;23;20095;-79
2023/05/01 02:15:05;;;;;;;0.60;0.60;;;;;;;5.55;93.81;98274.16;6074112;23;20032;-79
2023/05/01 02:17:34;;;;;;;0.60;0.60;;;;;;;5.53;94.06;98273.56;6122174;23;20025;-80
2023/05/01 02:20:03;;;;;;;0.70;0.70;;;;;;;5.62;94.30;98274.84;6098932;23;20022;-80
2023/05/01 02:22:30;;;;;;;0.68;0.68;;;;;;;5.72;94.25;98286.84;6097458;23;20402;-79
2023/05/01 02:24:59;;;;;;;0.70;0.70;;;;;;;5.75;94.27;98302.47;6101648;23;20085;-78
2023/05/01 02:27:34;;;;;;;0.70;0.70;;;;;;;5.78;94.49;98308.16;6159469;23;20495;-80
2023/05/01 02:30:04;;;;;;;0.70;0.70;;;;;;;5.79;94.31;98311.66;6158120;23;20032;-80
2023/05/01 02:32:32;;;;;;;0.60;0.60;;;;;;;5.81;94.23;98328.31;6184052;23;20021;-79
2023/05/01 02:35:02;;;;;;;0.60;0.60;;;;;;;5.79;94.21;98349.94;6184688;23;20083;-79
2023/05/01 02:37:30;;;;;;;0.60;0.60;;;;;;;5.78;93.98;98344.84;6158695;23;20025;-80
2023/05/01 02:39:57;;;;;;;0.60;0.60;;;;;;;5.76;93.82;98349.59;6160719;23;20028;-78
2023/05/01 02:42:26;;;;;;;0.60;0.60;;;;;;;5.70;94.10;98351.34;6187388;23;20364;-79
2023/05/01 02:45:00;;;;;;;0.60;0.60;;;;;;;5.54;94.47;98327.88;6213523;23;20103;-78
2023/05/01 02:47:34;;;;;;;0.60;0.60;;;;;;;5.67;94.35;98341.06;6188665;23;20027;-79
2023/05/01 02:50:02;;;;;;;0.60;0.60;;;;;;;5.64;94.63;98341.53;6162822;23;20447;-79
2023/05/01 02:52:30;;;;;;;0.60;0.60;;;;;;;5.65;94.88;98321.78;6187717;23;20028;-79
2023/05/01 02:55:16;;;;;;;0.70;0.70;;;;;;;5.69;94.63;98314.09;6186966;23;20020;-80
2023/05/01 02:57:43;;;;;;;0.63;0.63;;;;;;;5.79;94.73;98311.66;6162862;23;20371;-79
2023/05/01 03:00:13;;;;;;;0.70;0.70;;;;;;;5.77;94.44;98297.69;6187418;23;20024;-79
2023/05/01 03:02:48;;;;;;;0.70;0.70;;;;;;;5.83;94.71;98297.59;6187431;23;20017;-79
2023/05/01 03:05:18;;;;;;;0.70;0.70;;;;;;;5.86;94.63;98285.59;6213566;23;20034;-79
2023/05/01 03:07:47;;;;;;;0.70;0.70;;;;;;;5.96;94.76;98285.06;6187446;23;20408;-78
2023/05/01 03:10:17;;;;;;;0.60;0.60;;;;;;;6.14;94.80;98294.84;6186686;23;20459;-79
2023/05/01 03:12:44;;;;;;;0.70;0.70;;;;;;;6.27;94.58;98297.28;6213997;23;20103;-80
2023/05/01 03:15:12;;;;;;;0.60;0.60;;;;;;;6.28;94.10;98312.31;6213272;23;20546;-79
2023/05/01 03:17:39;;;;;;;0.60;0.60;;;;;;;6.22;93.48;98316.72;6213371;23;20028;-78
2023/05/01 03:20:09;;;;;;;0.60;0.60;;;;;;;6.02;93.23;98311.72;6213618;23;20024;-79
2023/05/01 03:22:36;;;;;;;0.60;0.60;;;;;;;6.04;93.50;98320.34;6213329;23;20100;-79
2023/05/01 03:25:07;;;;;;;0.60;0.60;;;;;;;6.03;93.49;98325.94;6187757;23;20047;-79
2023/05/01 03:27:35;;;;;;;0.70;0.70;;;;;;;6.06;93.35;98325.47;6163295;23;20452;-79
2023/05/01 03:30:03;;;;;;;0.60;0.60;;;;;;;6.04;93.60;98325.69;6213532;23;20036;-79
2023/05/01 03:32:35;;;;;;;0.60;0.60;;;;;;;6.08;93.47;98336.78;6162255;23;20455;-80
2023/05/01 03:35:11;;;;;;;0.60;0.60;;;;;;;6.08;93.17;98336.78;6186980;23;20542;-79
2023/05/01 03:37:39;;;;;;;0.60;0.60;;;;;;;6.08;93.31;98340.25;6214082;23;20031;-79
2023/05/01 03:40:07;;;;;;;0.68;0.68;;;;;;;6.07;93.20;98351.19;6187050;23;20025;-79
2023/05/01 03:42:53;;;;;;;0.60;0.60;;;;;;;6.13;93.33;98349.44;6213733;23;20108;-79
2023/05/01 03:45:23;;;;;;;0.60;0.60;;;;;;;6.21;93.66;98349.94;6213137;23;20532;-79
2023/05/01 03:47:51;;;;;;;0.70;0.70;;;;;;;6.20;93.12;98345.66;6187196;23;20016;-80
2023/05/01 03:50:20;;;;;;;0.60;0.60;;;;;;;6.23;93.19;98341.69;6185914;23;20391;-80
2023/05/01 03:52:52;;;;;;;0.70;0.70;;;;;;;6.32;93.16;98345.63;6164060;23;20027;-79
2023/05/01 03:55:19;;;;;;;0.60;0.60;;;;;;;6.35;93.06;98336.31;6186949;23;20024;-79
2023/05/01 03:57:48;;;;;;;0.70;0.70;;;;;;;6.40;92.86;98318.47;6186988;23;20416;-80
2023/05/01 04:00:15;;;;;;;0.70;0.70;;;;;;;6.50;92.71;98337.47;6186756;23;20510;-79
2023/05/01 04:02:43;;;;;;;0.60;0.60;;;;;;;6.51;92.41;98339.09;6186722;23;20028;-78
2023/05/01 04:05:15;;;;;;;0.60;0.60;;;;;;;6.48;92.39;98339.59;6186648;23;20108;-79
2023/05/01 04:07:50;;;;;;;0.60;0.60;;;;;;;6.44;92.29;98338.41;6186647;23;20039;-78
2023/05/01 04:10:17;;;;;;;0.60;0.60;;;;;;;6.47;92.28;98351.34;6161589;23;20028;-79
2023/05/01 04:12:53;;;;;;;0.60;0.60;;;;;;;6.44;92.31;98348.31;6186471;23;20030;-80
2023/05/01 04:15:21;;;;;;;0.60;0.60;;;;;;;6.41;92.18;98346.13;6186630;23;20411;-79
2023/05/01 04:17:50;;;;;;;0.65;0.65;;;;;;;6.49;91.94;98351.91;6186702;23;20614;-78
2023/05/01 04:20:21;;;;;;;0.70;0.70;;;;;;;6.48;92.37;98342.25;6161320;23;20027;-79
2023/05/01 04:22:48;;;;;;;0.60;0.60;;;;;;;6.49;92.58;98346.56;6186826;23;20031;-80
2023/05/01 04:25:16;;;;;;;0.70;0.70;;;;;;;6.49;92.45;98340.38;6186522;23;20020;-79
2023/05/01 04:27:46;;;;;;;0.70;0.70;;;;;;;6.46;92.44;98339.00;6186609;23;20103;-79
2023/05/01 04:30:14;;;;;;;0.60;0.60;;;;;;;6.39;92.61;98342.84;6212303;23;20029;-78
2023/05/01 04:32:42;;;;;;;0.60;0.60;;;;;;;6.53;92.52;98356.81;6186443;23;20471;-80
2023/05/01 04:35:11;;;;;;;0.60;0.60;;;;;;;6.58;92.45;98370.34;6213234;23;20032;-78
2023/05/01 04:37:41;;;;;;;0.70;0.70;;;;;;;6.58;92.19;98357.72;6186669;23;20056;-79
2023/05/01 04:40:09;;;;;;;0.70;0.70;;;;;;;6.59;91.92;98356.69;6161875;23;20360;-79
2023/05/01 04:42:38;;;;;;;0.70;0.70;;;;;;;6.55;92.27;98366.25;6186020;23;20040;-79
2023/05/01 04:45:09;;;;;;;0.60;0.60;;;;;;;6.62;92.12;98364.28;6186479;23;20040;-80
2023/05/01 04:47:36;;;;;;;0.60;0.60;;;;;;;6.69;92.10;98382.94;6213168;23;20699;-79
2023/05/01 04:50:04;;;;;;;0.60;0.60;;;;;;;6.67;92.13;98379.66;6186338;23;20028;-79
2023/05/01 04:52:31;;;;;;;0.60;0.60;;;;;;;6.69;91.97;98389.09;6161418;23;20020;-79
2023/05/01 04:55:02;;;;;;;0.70;0.70;;;;;;;6.66;91.64;98378.84;6186460;23;20024;-79
2023/05/01 04:57:33;;;;;;;0.60;0.60;;;;;;;6.65;91.99;98382.56;6162777;23;20027;-79
2023/05/01 05:00:22;;;;;;;0.60;0.60;;;;;;;6.69;91.59;98377.56;6186594;23;20424;-79
2023/05/01 05:02:54;;;;;;;0.60;0.60;;;;;;;6.66;91.74;98373.50;6161538;23;20079;-79
2023/05/01 05:05:25;;;;;;;0.60;0.60;;;;;;;6.65;91.73;98354.94;6182971;23;20032;-80
2023/05/01 05:07:52;;;;;;;0.60;0.60;;;;;;;6.71;91.47;98360.19;6181409;23;20419;-80
2023/05/01 05:10:37;;;;;;;0.60;0.60;;;;;;;6.65;91.39;98371.03;6184198;23;20558;-80
2023/05/01 05:13:26;;;;;;;0.60;0.60;;;;;;;6.64;91.64;98388.19;6209528;23;20024;-81
2023/05/01 05:15:58;;;;;;;0.60;0.60;;;;;;;6.59;91.62;98383.50;6161478;23;20040;-81
2023/05/01 05:18:26;;;;;;;0.70;0.70;;;;;;;6.59;91.55;98358.56;6183587;23;20048;-80
2023/05/01 05:20:55;;;;;;;0.60;0.60;;;;;;;6.65;91.64;98363.78;6184999;23;20429;-81
2023/05/01 05:23:22;;;;;;;0.70;0.70;;;;;;;6.68;91.56;98363.34;6160020;23;20463;-80
2023/05/01 05:25:49;;;;;;;0.63;0.63;;;;;;;6.69;91.11;98372.22;6185496;23;20024;-78
2023/05/01 05:28:17;;;;;;;0.70;0.70;;;;;;;6.74;91.23;98369.63;6185189;23;20066;-80
2023/05/01 05:33:34;;;;;;;0.60;0.60;;;;;;;6.82;90.88;98366.59;6139770;23;20024;-81
2023/05/01 05:36:01;;;;;;;0.60;0.60;;;;;;;6.90;90.86;98368.91;6186316;23;20050;-82
2023/05/01 05:38:34;;;;;;;0.60;0.60;;;;;;;6.83;90.72;98346.75;6180032;23;20028;-80
2023/05/01 05:41:16;;;;;;;0.60;0.60;;;;;;;6.83;90.34;98352.09;6159288;23;20028;-81
2023/05/01 05:44:26;;;;;;;0.70;0.70;;;;;;;7.05;90.33;98381.81;6185603;23;20029;-81
2023/05/01 05:46:53;;;;;;;0.60;0.60;;;;;;;6.93;90.22;98384.50;6198873;23;20031;-80
2023/05/01 05:49:28;;;;;;;0.70;0.70;;;;;;;7.02;90.04;98397.59;6189452;23;20049;-81
2023/05/01 05:52:01;;;;;;;0.70;0.70;;;;;;;7.02;90.00;98393.03;6202337;23;20020;-81
2023/05/01 05:55:11;;;;;;;0.60;0.60;;;;;;;6.88;89.81;98376.34;6201991;23;20030;-82
2023/05/01 05:58:00;;;;;;;0.60;0.60;;;;;;;7.01;89.58;98390.56;6238244;23;20020;-83
2023/05/01 06:00:45;;;;;;;0.60;0.60;;;;;;;7.05;89.07;98414.00;6246252;23;20024;-82
2023/05/01 06:03:18;;;;;;;0.60;0.60;;;;;;;6.98;89.16;98415.19;6146538;23;20128;-82
2023/05/01 06:05:45;;;;;;;0.60;0.60;;;;;;;6.92;89.20;98404.34;6227757;23;20330;-82
2023/05/01 06:08:14;;;;;;;0.60;0.60;;;;;;;7.10;89.05;98416.81;6193335;23;20027;-81
2023/05/01 06:10:42;;;;;;;0.65;0.65;;;;;;;7.06;88.76;98414.81;6215647;23;20032;-81
2023/05/01 06:16:26;;;;;;;0.70;0.70;;;;;;;7.22;88.21;98410.63;6136716;23;20033;-83
2023/05/01 06:18:54;;;;;;;0.70;0.70;;;;;;;7.33;87.15;98418.63;6126689;23;20468;-82
2023/05/01 06:21:22;;;;;;;0.70;0.70;;;;;;;7.46;86.78;98414.84;6125657;23;20389;-81
2023/05/01 06:23:49;;;;;;;0.70;0.70;;;;;;;7.48;85.90;98412.75;6101581;23;20084;-82
2023/05/01 06:26:27;;;;;;;0.70;0.70;;;;;;;7.58;85.76;98421.00;6102312;23;20021;-80
2023/05/01 06:28:54;;;;;;;0.60;0.60;;;;;;;7.61;85.38;98422.38;6151864;23;20085;-80
2023/05/01 06:31:21;;;;;;;0.68;0.68;;;;;;;7.69;85.14;98438.09;6152046;23;20045;-82
2023/05/01 06:34:12;;;;;;;0.70;0.70;;;;;;;7.78;84.49;98439.38;6150592;23;20453;-83
2023/05/01 06:36:50;;;;;;;0.60;0.60;;;;;;;7.58;84.07;98410.25;6147965;23;20032;-85
2023/05/01 06:39:17;;;;;;;0.70;0.70;;;;;;;7.73;84.03;98425.03;6215100;23;20035;-82
2023/05/01 06:41:46;;;;;;;0.70;0.70;;;;;;;7.88;83.57;98438.75;6241873;23;20345;-82
2023/05/01 06:44:44;;;;;;;0.70;0.70;;;;;;;7.82;83.13;98429.78;6221265;23;20147;-82
2023/05/01 06:47:12;;;;;;;0.70;0.70;;;;;;;8.07;82.61;98438.53;6214906;23;20024;-82
2023/05/01 06:49:42;;;;;;;0.70;0.70;;;;;;;8.17;81.95;98438.72;6215517;23;20082;-82
2023/05/01 06:52:10;;;;;;;0.70;0.70;;;;;;;8.23;81.43;98443.94;6243101;23;20078;-83
2023/05/01 06:58:56;;;;;;;0.60;0.60;;;;;;;8.48;79.72;98463.44;6241448;23;20028;-83
2023/05/01 07:09:16;;;;;;;0.60;0.60;;;;;;;8.65;77.23;98454.31;6189201;23;20028;-82
2023/05/01 07:11:43;;;;;;;0.70;0.70;;;;;;;8.78;76.83;98446.97;6217481;23;20111;-82
2023/05/01 07:14:23;;;;;;;0.70;0.70;;;;;;;8.89;75.96;98454.16;6191692;23;20856;-82
2023/05/01 07:17:20;;;;;;;0.70;0.70;;;;;;;8.78;75.08;98453.16;6132420;23;20016;-81
2023/05/01 07:19:56;;;;;;;0.60;0.60;;;;;;;8.96;75.70;98462.84;6215887;23;20054;-83
2023/05/01 07:23:26;;;;;;;;;;;;;;;;;;;;;
2023/05/01 07:26:37;;;;;;;0.70;0.70;;;;;;;9.27;72.12;98472.19;6182464;23;20028;-83
2023/05/01 07:36:03;;;;;;;;;;;;;;;10.38;69.26;98491.75;6213020;23;20035;-82
2023/05/01 07:45:04;;;;;;;0.80;0.80;;;;;;;11.31;63.71;98483.28;6180008;23;20025;-81
2023/05/01 07:48:09;;;;;;;0.70;0.70;;;;;;;11.59;61.67;98486.66;6145669;23;20506;-83
2023/05/01 07:50:37;;;;;;;0.70;0.70;;;;;;;11.73;61.17;98505.94;6153874;23;20040;-82
2023/05/01 07:53:09;;;;;;;0.60;0.60;;;;;;;11.75;61.01;98501.03;6178345;23;20025;-82
2023/05/01 07:55:37;;;;;;;0.60;0.60;;;;;;;11.73;60.40;98512.16;6200824;23;20103;-82
2023/05/01 08:37:07;;;;;;;0.60;0.60;;;;;;;10.30;61.12;98557.78;6064064;23;20597;-82
2023/05/01 08:39:46;;;;;;;0.60;0.60;;;;;;;10.39;61.42;98568.94;6066325;23;20023;-82
2023/05/01 08:42:22;;;;;;;0.60;0.60;;;;;;;10.48;61.48;98578.22;6089178;23;20046;-80
2023/05/01 08:44:53;;;;;;;0.60;0.60;;;;;;;10.32;62.26;98577.22;6041838;23;20027;-82
2023/05/01 08:47:21;;;;;;;0.50;0.50;;;;;;;10.34;62.48;98577.78;6064261;23;20022;-81
2023/05/01 08:49:58;;;;;;;0.60;0.60;;;;;;;10.22;62.74;98565.47;6020926;23;20112;-82
2023/05/01 08:52:51;;;;;;;0.60;0.60;;;;;;;10.44;62.19;98573.59;6066913;23;20022;-81
2023/05/01 08:55:20;;;;;;;0.60;0.60;;;;;;;10.60;62.10;98569.97;6118176;23;20486;-81
2023/05/01 08:58:00;;;;;;;0.60;0.60;;;;;;;10.67;61.53;98596.75;6099058;23;20120;-82
2023/05/01 09:00:37;;;;;;;0.60;0.60;;;;;;;10.56;61.25;98574.25;6098679;23;20021;-81
2023/05/01 09:03:30;;;;;;;0.60;0.60;;;;;;;10.71;60.66;98590.59;6097162;23;20027;-82
2023/05/01 09:06:50;;;;;;;0.60;0.60;;;;;;;10.88;59.20;98603.16;5972114;23;20508;-83
2023/05/01 09:09:20;;;;;;;0.60;0.60;;;;;;;11.13;58.90;98600.66;6003861;23;20028;-81
2023/05/01 09:18:46;;;;;;;0.60;0.60;;;;;;;10.87;57.83;98578.03;6063154;23;20075;-82
2023/05/01 09:21:30;;;;;;;0.60;0.60;;;;;;;10.34;59.45;98577.78;6060877;23;20082;-82
2023/05/01 09:28:46;;;;;;;0.70;0.70;;;;;;;10.38;59.80;98596.97;6153154;22;20034;-82
2023/05/01 09:31:33;;;;;;;0.60;0.60;;;;;;;10.89;59.12;98611.00;6188866;23;20024;-82
2023/05/01 09:38:28;;;;;;;0.63;0.63;;;;;;;10.91;59.43;98614.22;6183298;23;20056;-82
2023/05/01 09:41:11;;;;;;;0.60;0.60;;;;;;;11.01;58.10;98603.56;6238860;23;20032;-83
2023/05/01 09:43:38;;;;;;;0.60;0.60;;;;;;;11.35;58.08;98619.47;6212835;23;20047;-81
2023/05/01 09:46:09;;;;;;;0.57;0.57;;;;;;;11.31;57.72;98614.84;6237084;23;20356;-81
2023/05/01 09:48:37;;;;;;;0.50;0.50;;;;;;;10.96;58.22;98613.47;6237593;23;20478;-81
2023/05/01 09:51:59;;;;;;;0.60;0.60;;;;;;;10.74;58.40;98600.88;6211530;23;20023;-81
2023/05/01 09:54:29;;;;;;;0.50;0.50;;;;;;;10.64;58.10;98614.25;6166684;23;20020;-81
2023/05/01 09:56:59;;;;;;;0.60;0.60;;;;;;;10.47;58.64;98643.22;6210770;23;20099;-82
2023/05/01 09:59:38;;;;;;;0.50;0.50;;;;;;;10.11;59.28;98630.09;6185562;23;20304;-82
2023/05/01 10:02:07;;;;;;;0.50;0.50;;;;;;;10.06;60.07;98635.41;6194901;23;20112;-82
2023/05/01 10:04:59;;;;;;;0.60;0.60;;;;;;;10.00;60.51;98647.19;6214653;23;20133;-81
2023/05/01 10:07:30;;;;;;;0.50;0.50;;;;;;;9.83;61.20;98646.44;6215896;23;20024;-85
2023/05/01 10:09:58;;;;;;;0.60;0.60;;;;;;;9.69;61.51;98651.34;6212831;23;20103;-87
2023/05/01 10:12:31;;;;;;;0.50;0.50;;;;;;;9.50;62.28;98659.69;6215164;23;20020;-83
2023/05/01 10:18:22;;;;;;;0.55;0.55;;;;;;;9.32;63.37;98670.72;6183832;23;20028;-84
2023/05/01 10:20:53;;;;;;;0.60;0.60;;;;;;;9.13;64.04;98667.41;6241528;23;20458;-83
2023/05/01 10:23:27;;;;;;;0.57;0.57;;;;;;;8.92;65.21;98684.28;6215147;23;20066;-82
2023/05/01 10:25:55;;;;;;;0.60;0.60;;;;;;;8.74;66.31;98688.81;6215663;23;20452;-83
2023/05/01 10:28:27;;;;;;;0.60;0.60;;;;;;;8.48;66.90;98682.09;6214206;23;20402;-80
2023/05/01 10:30:55;;;;;;;0.60;0.60;;;;;;;8.31;67.87;98700.81;6213538;23;20359;-81
2023/05/01 10:33:22;;;;;;;0.50;0.50;;;;;;;8.15;68.49;98702.38;6216049;23;20020;-81
2023/05/01 10:35:55;;;;;;;0.60;0.60;;;;;;;8.08;68.89;98709.75;6242544;23;20031;-81
2023/05/01 10:38:25;;;;;;;0.60;0.60;;;;;;;8.04;69.15;98725.50;6216342;23;20028;-82
2023/05/01 10:41:12;;;;;;;0.60;0.60;;;;;;;7.90;69.48;98715.22;6216677;23;20051;-82
2023/05/01 10:44:23;;;;;;;0.60;0.60;;;;;;;7.78;69.66;98732.19;6241902;23;20034;-81
2023/05/01 10:46:51;;;;;;;0.60;0.60;;;;;;;7.56;70.37;98739.16;6239707;23;20084;-81
2023/05/01 10:49:20;;;;;;;0.60;0.60;;;;;;;7.49;70.58;98736.56;6215288;23;20024;-81
2023/05/01 10:51:57;;;;;;;0.70;0.70;;;;;;;7.44;70.86;98754.44;6241619;23;20357;-80
2023/05/01 10:54:31;;;;;;;0.60;0.60;;;;;;;7.31;71.58;98752.75;6199993;23;20402;-80
2023/05/01 10:57:02;;;;;;;0.70;0.70;;;;;;;7.30;72.01;98751.94;6211044;23;20071;-80
2023/05/01 10:59:57;;;;;;;0.60;0.60;;;;;;;7.10;72.47;98770.22;6160107;23;20020;-81
2023/05/01 11:02:26;;;;;;;0.60;0.60;;;;;;;6.77;73.50;98750.00;6211110;23;20091;-82
2023/05/01 11:04:54;;;;;;;0.60;0.60;;;;;;;6.71;73.79;98751.72;6185841;23;20063;-80
2023/05/01 11:07:23;;;;;;;0.70;0.70;;;;;;;6.80;74.03;98760.28;6210816;23;20032;-81
2023/05/01 11:10:24;;;;;;;0.60;0.60;;;;;;;6.73;74.29;98773.78;6211613;23;20035;-80
2023/05/01 11:12:55;;;;;;;0.70;0.70;;;;;;;6.83;74.52;98788.50;6161006;23;20021;-81
2023/05/01 11:15:32;;;;;;;0.60;0.60;;;;;;;6.76;74.82;98780.56;6186681;23;20039;-80
2023/05/01 11:18:01;;;;;;;0.70;0.70;;;;;;;6.68;75.00;98794.25;6210625;23;20025;-80
2023/05/01 11:20:35;;;;;;;0.60;0.60;;;;;;;6.62;76.00;98805.88;6211095;23;20423;-80
2023/05/01 11:23:26;;;;;;;0.63;0.63;;;;;;;6.46;75.49;98815.34;6212340;23;20539;-80
2023/05/01 11:26:04;;;;;;;0.80;0.80;;;;;;;6.43;76.03;98813.94;6211586;23;20074;-81
2023/05/01 11:28:32;;;;;;;0.60;0.60;;;;;;;6.45;75.53;98819.06;6211155;23;20458;-81
2023/05/01 11:30:59;;;;;;;0.70;0.70;;;;;;;6.17;75.83;98816.84;6161333;23;20114;-80
2023/05/01 11:33:26;;;;;;;0.70;0.70;;;;;;;6.00;76.43;98825.47;6161133;23;20024;-81
2023/05/01 11:36:00;;;;;;;0.70;0.70;;;;;;;5.82;76.59;98828.03;6184437;23;20024;-79
2023/05/01 11:38:27;;;;;;;0.60;0.60;;;;;;;5.73;77.00;98843.56;6211442;23;20391;-80
2023/05/01 11:40:58;;;;;;;0.70;0.70;;;;;;;5.73;77.09;98846.25;6210578;23;20511;-79
2023/05/01 11:43:25;;;;;;;0.60;0.60;;;;;;;5.70;77.40;98846.69;6159555;23;20056;-80
2023/05/01 11:45:55;;;;;;;0.70;0.70;;;;;;;5.92;77.70;98857.81;6211599;23;20071;-80
2023/05/01 11:48:22;;;;;;;0.70;0.70;;;;;;;5.88;77.15;98858.50;6185092;23;20025;-79
2023/05/01 11:50:52;;;;;;;0.70;0.70;;;;;;;5.87;77.33;98863.03;6210977;23;20031;-80
2023/05/01 11:53:24;;;;;;;0.70;0.70;;;;;;;5.92;77.79;98871.22;6185605;23;20021;-80
2023/05/01 11:55:52;;;;;;;0.60;0.60;;;;;;;6.02;77.45;98854.69;6160894;23;20377;-80
2023/05/01 11:58:33;;;;;;;0.70;0.70;;;;;;;5.86;76.75;98859.53;6183813;23;20538;-80
2023/05/01 12:01:00;;;;;;;0.70;0.70;;;;;;;5.72;76.93;98854.47;6211235;23;20124;-81
2023/05/01 12:03:42;;;;;;;0.70;0.70;;;;;;;5.76;77.74;98877.13;6184288;23;20612;-81
2023/05/01 12:06:44;;;;;;;0.70;0.70;;;;;;;5.80;77.49;98867.63;6211290;23;20025;-81
2023/05/01 12:09:16;;;;;;;0.80;0.80;;;;;;;5.67;77.15;98868.50;6210566;23;20467;-81
2023/05/01 12:11:44;;;;;;;0.70;0.70;;;;;;;5.66;77.37;98888.31;6185621;23;20348;-81
2023/05/01 12:14:12;;;;;;;0.77;0.77;;;;;;;5.57;77.91;98894.94;6211478;23;20024;-80
2023/05/01 12:19:25;;;;;;;0.80;0.80;;;;;;;5.57;78.43;98902.97;6182146;23;20028;-81
2023/05/01 12:22:08;;;;;;;0.80;0.80;;;;;;;5.62;79.02;98903.97;6182311;23;20079;-82
2023/05/01 12:24:54;;;;;;;0.80;0.80;;;;;;;5.77;78.69;98901.00;6210295;23;20464;-80
2023/05/01 12:27:22;;;;;;;0.70;0.70;;;;;;;5.68;78.39;98913.00;6210601;23;20032;-80
2023/05/01 12:30:28;;;;;;;0.70;0.70;;;;;;;5.77;78.88;98917.09;6188429;23;20043;-80
2023/05/01 12:32:56;;;;;;;0.80;0.80;;;;;;;5.55;78.78;98903.19;6210932;23;20025;-80
2023/05/01 12:35:30;;;;;;;0.80;0.80;;;;;;;5.58;79.33;98929.53;6183721;23;20593;-80
2023/05/01 12:37:58;;;;;;;0.70;0.70;;;;;;;5.53;79.53;98921.31;6157664;23;20025;-80
2023/05/01 12:40:26;;;;;;;0.70;0.70;;;;;;;5.57;80.45;98930.59;6209168;23;20107;-81
2023/05/01 12:42:59;;;;;;;0.70;0.70;;;;;;;5.43;80.97;98937.84;6208944;23;20602;-81
2023/05/01 12:45:26;;;;;;;0.77;0.77;;;;;;;5.31;80.77;98938.72;6182580;23;20026;-80
2023/05/01 12:47:59;;;;;;;0.70;0.70;;;;;;;5.28;80.85;98949.84;6182819;23;20024;-82
2023/05/01 12:50:26;;;;;;;0.80;0.80;;;;;;;5.24;80.23;98937.91;6183513;23;20028;-78
2023/05/01 12:52:53;;;;;;;0.70;0.70;;;;;;;5.27;79.85;98949.03;6160517;23;20330;-80
2023/05/01 12:55:22;;;;;;;0.75;0.75;;;;;;;5.56;80.35;98961.03;6209791;23;20025;-79
2023/05/01 12:57:58;;;;;;;0.70;0.70;;;;;;;5.54;78.85;98963.09;6211011;23;20032;-81
2023/05/01 13:00:54;;;;;;;0.80;0.80;;;;;;;5.45;78.95;98948.34;6187895;23;20082;-80
2023/05/01 13:03:25;;;;;;;0.77;0.77;;;;;;;5.72;78.93;98967.78;6209645;23;20025;-81
2023/05/01 13:05:55;;;;;;;0.80;0.80;;;;;;;5.65;77.79;98965.13;6181539;23;20026;-82
2023/05/01 13:08:36;;;;;;;0.70;0.70;;;;;;;5.87;78.34;98975.50;6181410;23;20072;-83
2023/05/01 13:11:31;;;;;;;0.80;0.80;;;;;;;5.98;77.62;98980.22;6203602;23;20155;-81
2023/05/01 13:14:20;;;;;;;0.70;0.70;;;;;;;6.03;76.25;98979.59;6202560;23;20027;-85
2023/05/01 13:16:51;;;;;;;0.70;0.70;;;;;;;5.92;75.66;98978.38;6208307;23;20052;-83
2023/05/01 13:19:27;;;;;;;0.70;0.70;;;;;;;6.10;75.82;98995.59;6134586;23;20024;-83
2023/05/01 13:21:56;;;;;;;0.80;0.80;;;;;;;6.13;75.54;98973.72;6208585;23;20329;-83
2023/05/01 13:24:41;;;;;;;0.80;0.80;;;;;;;6.38;75.12;98982.66;6159704;23;20515;-83
2023/05/01 13:27:09;;;;;;;0.75;0.75;;;;;;;6.28;74.08;98974.28;6209134;23;20028;-84
2023/05/01 13:29:44;;;;;;;0.70;0.70;;;;;;;6.26;74.73;98987.88;6210004;23;20107;-83
2023/05/01 13:32:14;;;;;;;0.73;0.73;;;;;;;6.41;74.64;98986.75;6134205;23;20028;-83
2023/05/01 13:34:43;;;;;;;0.80;0.80;;;;;;;6.73;74.31;99014.31;6209700;23;20367;-83
2023/05/01 13:37:13;;;;;;;0.75;0.75;;;;;;;6.70;73.90;98999.50;6210831;23;20021;-82
2023/05/01 13:39:45;;;;;;;;;;;;;;;7.03;73.99;99016.34;6213194;23;20020;-83
2023/05/01 13:42:25;;;;;;;0.80;0.80;;;;;;;7.12;72.83;98990.88;6180400;23;19947;-83
2023/05/01 13:47:50;;;;;;;0.80;0.80;;;;;;;7.46;69.98;98994.00;6205465;23;20048;-83